Portada
METAR-TAF:

METAR-TAF

Aeroports :

Bonaire, Antilles Neerlandeses

latitud: 12-09N, longitud: 068-17W, altitud: 6 m

Observació

L'informe es va fer fa 27 minuts, a les 13:55 UTC
Vent 12 kt del Est, variant entre Est/Nord-Est i Sud-Est
Temperatura 32°C
Humitat 67%
Pressió 1014 hPa
Visibilitat 10 km o més
Núvols disperses a una alçada de 2300 ft
Cel ennuvolat a una alçada de 2800 ft
Cel ennuvolat a una alçada de 3100 ft

METAR: TNCB 261355Z 09012KT 060V140 9999 SCT023 BKN028 BKN031 32/25 Q1014

Hora: 10:22 (14:22 UTC)

Pronòstic

L'informe es va fer fa 2 hores i 58 minuts, a les 11:24 UTC
Pronòstic vàlid del 26 a les 12 UTC al 27 a les 18 UTC
Vent 12 kt del Est
Visibilitat 10 km o més
Núvols disperses a una alçada de 1800 ft

TAF: TNCB 261124Z 2612/2718 10012KT 9999 SCT018

Observacions i pronòstics meteorològics de més de 4000 aeroports (METAR i TAF).

Les estacions disponibles són els punts grocs i vermells al mapa.

Posi el ratolí al punt desitjat per veure el nom de l'estació.

Feu clic per veure les observacions i els pronòstics meteorològics.

Per canviar el mapa: feu clic els botons verds amb una creu de color negre per apropar; al botó verd amb un guió per allunyar la imatge; o en les fletxes verdes per a mapes adjacents.


METAR-TAF: